気象予報士の航空気象 降雪、検証TAFとMETAR

*All archives   *Admin

2010.02.18 (Thu)

降雪、検証TAFとMETAR

昨日の成田のTAF


RJAA 171444Z 1715/1818 34007KT 8000 -SNRA SCT015 BKN030
BECMG 1716/1718 4000 -SNRA BKN008 BKN020
TEMPO 1718/1723 1500 -SN BKN006 BKN010
BECMG 1800/1803 8000 NSW BKN012 BKN020


 朝起きたら、雪が積もっていました。


成田のMETARの時系列です。


RJAA 171700Z 36008KT 9999 FEW025 BKN035 02/M02 Q1020 BECMG 4000 -SNRA

午前2時。曇ってますが、雪はまだ降っていません。レーダーで捉えているのか、予報が付随しています。


RJAA 171800Z 03005KT 3500 -SN BR BKN012 01/M01 Q1019 TEMPO 1500 -SN BKN006 BKN010 RMK 7SC012 A3009

午前3時、雪が降り始め、視程がガクンと落ちました。


RJAA 172046Z 34010KT 1400 R34L/P1800N R34R/P1800N -SN BR FEW001 SCT002 BKN003 00/M00 Q1017 RMK 1ST001 3ST002 7ST003 A3005

午前5時46分。RVR起動!視程は1400m。


RJAA 172141Z 35009KT 1200 R34L/P1800N R34R/P1800N SN BR FEW001 SCT002 BKN003 00/M00 Q1016 RMK 1ST001 4ST002 7ST003 A3003 2135 MOD TURB FL150 44NM E NARITA B747

上空ではタービュランス。


RJAA 172200Z 34009KT 1100 R34L/P1800N R34R/1600U SN BR FEW001 SCT002 BKN003 00/M00 Q1017 NOSIG RMK 1ST001 3ST002 7ST003 A3003

午前7時。視程1100m、低層に雲があり、離着陸が厳しい天候になっています。


RJAA 180000Z 36012KT 3000 -SN BR FEW002 BKN004 BKN005 01/M00 Q1015 NOSIG RMK 1ST002 5ST004 6ST005 A3000

午前9時、少し回復。


 昨日のTAFが的中したようで、午前3時から雪が降り始めたようですね。


午前9時38分発表の成田のTAF

RJAA 180038Z 1800/1824 34008KT 4000 -SNRA BKN008 BKN020
TEMPO 1800/1802 3000 -SNRA BKN006 BKN015
BECMG 1802/1804 8000 NSW SCT015 BKN030

昨日に較べ、天候の回復は午前11時からになっています。


公園の草の上にはたっぷりの真っ白な雪が積もっています。


放課後の子供たちが雪だるまを作ることでしょう。




ブログランキングに参加しています。
にほんブログ村 環境ブログ 天気・気象学へ
にほんブログ村
応援クリックをおねがします。


以下、アフィリエイトサイトです。




スポンサーサイト
10:16  |  気象・天気  |  TB(0)  |  CM(0)  |  EDIT  |  Top↑

コメントを投稿する


 管理者だけに表示  (非公開コメント投稿可能)

▲PageTop

この記事のトラックバックURL

→http://weathereucalyptus.blog115.fc2.com/tb.php/398-4ceba441
この記事にトラックバックする(FC2ブログユーザー)

この記事へのトラックバック

▲PageTop

 | BLOGTOP |